createdAt,value
2023-05-14T07:56:42.001Z,1018.66
2023-05-14T07:59:36.424Z,1018.59
2023-05-14T08:05:58.879Z,1018.62
2023-05-14T08:29:46.720Z,1018.29
2023-05-14T08:31:47.990Z,1018.28
2023-05-14T08:34:04.476Z,1018.27
2023-05-14T08:36:17.191Z,1018.24
2023-05-14T08:38:29.233Z,1018.23
2023-05-14T08:40:44.951Z,1018.19
2023-05-14T08:42:58.389Z,1018.20
2023-05-14T08:45:16.469Z,1018.15
2023-05-14T08:47:30.082Z,1018.14
2023-05-14T08:49:43.119Z,1018.12
2023-05-14T08:51:58.717Z,1018.08
2023-05-14T08:54:10.774Z,1018.06
2023-05-14T08:56:24.395Z,1018.05
2023-05-14T08:58:40.485Z,1018.07
2023-05-14T09:00:53.554Z,1017.98
2023-05-14T09:03:06.736Z,1017.94
2023-05-14T09:05:20.262Z,1017.94
2023-05-14T09:07:33.890Z,1017.87
2023-05-14T09:09:49.450Z,1017.92
2023-05-14T09:12:02.989Z,1017.88
2023-05-14T09:14:15.181Z,1017.81
2023-05-14T09:16:28.778Z,1017.78
2023-05-14T09:18:42.360Z,1017.78
2023-05-14T09:20:54.765Z,1017.80
2023-05-14T09:23:06.610Z,1017.78
2023-05-14T09:25:20.222Z,1017.72
2023-05-14T09:27:33.864Z,1017.73
2023-05-14T09:29:49.382Z,1017.65
2023-05-14T09:32:02.526Z,1017.61
2023-05-14T09:34:18.567Z,1017.59
2023-05-14T09:36:35.695Z,1017.62
2023-05-14T09:38:45.244Z,1017.54
2023-05-14T09:40:59.716Z,1017.48
2023-05-14T09:43:12.438Z,1017.40
2023-05-14T09:45:24.529Z,1017.46
2023-05-14T09:47:36.698Z,1017.45
2023-05-14T09:50:57.581Z,1017.33
2023-05-14T09:53:11.159Z,1017.32
2023-05-14T09:55:23.407Z,1017.29
2023-05-14T09:57:36.858Z,1017.18
2023-05-14T09:59:48.020Z,1017.10
2023-05-14T10:01:59.599Z,1017.05
2023-05-14T10:04:11.774Z,1017.10
2023-05-14T10:06:24.312Z,1017.01
2023-05-14T10:08:35.841Z,1016.99
2023-05-14T10:10:49.416Z,1016.95
2023-05-14T10:13:01.508Z,1016.92
2023-05-14T10:15:17.578Z,1016.95
2023-05-14T10:17:29.223Z,1016.92
2023-05-14T10:19:42.790Z,1017.01
2023-05-14T10:21:56.377Z,1017.00
2023-05-14T10:24:08.456Z,1016.86
2023-05-14T10:26:23.991Z,1016.88
2023-05-14T10:28:35.103Z,1016.81
2023-05-14T10:30:48.748Z,1016.84
2023-05-14T10:33:00.833Z,1016.80
2023-05-14T10:35:14.769Z,1016.90
2023-05-14T10:37:26.899Z,1016.84
2023-05-14T10:39:37.994Z,1016.84
2023-05-14T10:41:50.405Z,1016.81
2023-05-14T10:44:02.501Z,1016.85
2023-05-14T10:46:14.773Z,1016.87
2023-05-14T10:48:26.698Z,1016.83
2023-05-14T10:50:38.757Z,1016.83
2023-05-14T10:52:51.851Z,1016.82
2023-05-14T10:55:05.384Z,1016.85
2023-05-14T10:57:18.983Z,1016.88
2023-05-14T10:59:31.105Z,1016.86
2023-05-14T11:01:43.202Z,1016.85
2023-05-14T11:03:55.338Z,1016.89
2023-05-14T11:31:07.649Z,1016.58
2023-05-14T11:33:41.207Z,1016.53
2023-05-14T11:35:38.308Z,1016.51
2023-05-14T11:37:48.859Z,1016.43
2023-05-14T11:40:05.497Z,1016.43
2023-05-14T11:46:06.451Z,1016.33
2023-05-14T11:48:37.063Z,1016.27
2023-05-14T11:50:27.583Z,1016.25
2023-05-14T11:52:39.064Z,1016.23
2023-05-14T11:54:55.152Z,1016.20
2023-05-14T11:57:09.761Z,1016.20
2023-05-14T11:59:27.809Z,1016.22
2023-05-14T12:02:18.039Z,1016.21
2023-05-14T12:03:55.196Z,1016.17
2023-05-14T12:07:09.073Z,1016.17
2023-05-14T12:14:54.955Z,1016.18
2023-05-14T12:16:54.199Z,1016.19
2023-05-14T12:18:46.056Z,1016.10
2023-05-14T12:20:58.117Z,1016.12
2023-05-14T12:23:11.722Z,1016.14
2023-05-14T12:25:25.331Z,1016.08
2023-05-14T12:27:37.356Z,1016.07
2023-05-14T12:29:49.458Z,1016.07
2023-05-14T12:32:02.503Z,1016.05
2023-05-14T12:34:13.625Z,1016.06
2023-05-14T12:36:27.746Z,1015.98
2023-05-14T12:38:39.766Z,1015.94
2023-05-14T12:40:52.806Z,1015.89
2023-05-14T12:43:03.914Z,1015.91
2023-05-14T12:45:15.995Z,1015.92
2023-05-14T12:47:28.145Z,1015.86
2023-05-14T12:49:40.151Z,1015.76
2023-05-14T12:51:57.385Z,1015.75
2023-05-14T12:54:05.312Z,1015.76
2023-05-14T12:56:17.919Z,1015.70
2023-05-14T12:58:29.534Z,1015.71
2023-05-14T13:00:41.578Z,1015.73
2023-05-14T13:02:53.687Z,1015.70
2023-05-14T13:05:06.693Z,1015.67
2023-05-14T13:07:19.763Z,1015.62
2023-05-14T13:09:31.888Z,1015.57
2023-05-14T13:11:43.908Z,1015.50
2023-05-14T13:13:56.006Z,1015.52
2023-05-14T13:16:09.117Z,1015.41
2023-05-14T13:18:21.184Z,1015.34
2023-05-14T13:20:33.357Z,1015.30
2023-05-14T13:22:45.432Z,1015.21
2023-05-14T13:24:57.510Z,1015.21
2023-05-14T13:27:09.585Z,1015.20
2023-05-14T13:29:23.614Z,1015.15
2023-05-14T13:31:35.676Z,1015.14
2023-05-14T13:33:47.766Z,1015.18
2023-05-14T13:35:58.913Z,1015.14
2023-05-14T13:38:11.979Z,1015.09
2023-05-14T13:40:24.050Z,1015.13
2023-05-14T13:42:37.698Z,1015.05
2023-05-14T13:44:51.194Z,1015.07
2023-05-14T13:47:03.291Z,1015.07
2023-05-14T13:49:16.870Z,1015.06
2023-05-14T13:51:29.005Z,1015.01
2023-05-14T13:53:41.065Z,1014.96
2023-05-14T13:55:53.121Z,1014.95
2023-05-14T13:58:05.220Z,1014.91
2023-05-14T14:00:20.217Z,1014.94
2023-05-14T14:02:31.325Z,1014.95
2023-05-14T14:04:42.479Z,1014.91
2023-05-14T14:06:54.515Z,1014.90
2023-05-14T14:09:06.603Z,1014.84
2023-05-14T14:11:18.684Z,1014.86
2023-05-14T14:13:30.777Z,1014.87
2023-05-14T14:15:42.949Z,1014.85
2023-05-14T14:17:55.868Z,1014.86
2023-05-14T14:20:07.086Z,1014.82
2023-05-14T14:22:20.165Z,1014.86
2023-05-14T14:24:33.257Z,1014.83
2023-05-14T14:26:45.412Z,1014.79
2023-05-14T14:28:57.440Z,1014.75
2023-05-14T14:31:09.543Z,1014.75
2023-05-14T14:33:22.500Z,1014.76
2023-05-14T14:35:33.701Z,1014.73
2023-05-14T14:37:45.794Z,1014.60
2023-05-14T14:39:57.836Z,1014.62
2023-05-14T14:42:11.127Z,1014.63
2023-05-14T14:44:23.178Z,1014.59
2023-05-14T14:46:34.425Z,1014.51
2023-05-14T14:48:46.468Z,1014.51
2023-05-14T14:51:00.403Z,1014.50
2023-05-14T14:53:11.602Z,1014.51
2023-05-14T14:55:24.907Z,1014.49
2023-05-14T14:57:37.617Z,1014.49
2023-05-14T14:59:49.851Z,1014.41
2023-05-14T15:02:01.888Z,1014.43
2023-05-14T15:04:14.566Z,1014.40
2023-05-14T15:06:26.045Z,1014.33
2023-05-14T15:08:38.160Z,1014.33
2023-05-14T15:10:50.257Z,1014.34
2023-05-14T15:13:02.309Z,1014.34
2023-05-14T15:15:15.367Z,1014.36
2023-05-14T15:17:27.466Z,1014.36
2023-05-14T15:19:39.513Z,1014.34
2023-05-14T15:21:52.913Z,1014.30
2023-05-14T15:24:03.702Z,1014.30
2023-05-14T15:26:15.781Z,1014.28
2023-05-14T15:28:27.860Z,1014.26
2023-05-14T15:30:40.951Z,1014.24
2023-05-14T15:32:53.109Z,1014.22
2023-05-14T15:35:06.149Z,1014.24
2023-05-14T15:37:19.203Z,1014.26
2023-05-14T15:39:32.148Z,1014.26
2023-05-14T15:41:43.362Z,1014.22
2023-05-14T15:43:56.430Z,1014.20
2023-05-14T15:46:07.563Z,1014.18
2023-05-14T15:48:19.910Z,1014.13
2023-05-14T15:50:31.980Z,1014.14
2023-05-14T15:52:45.006Z,1014.07
2023-05-14T15:54:56.229Z,1014.06
2023-05-14T15:57:09.802Z,1014.08
2023-05-14T15:59:21.912Z,1014.07
2023-05-14T16:01:34.044Z,1014.06
2023-05-14T16:03:46.192Z,1014.01
2023-05-14T16:05:58.197Z,1014.01
2023-05-14T16:08:11.164Z,1013.98
2023-05-14T16:10:24.021Z,1013.91
2023-05-14T16:12:35.922Z,1013.95
2023-05-14T16:14:48.016Z,1013.93
2023-05-14T16:17:00.108Z,1013.92
2023-05-14T16:19:12.250Z,1013.91
2023-05-14T16:21:24.252Z,1013.88
2023-05-14T16:23:36.362Z,1013.88
2023-05-14T16:25:49.441Z,1013.90
2023-05-14T16:28:01.474Z,1013.84
2023-05-14T16:30:12.629Z,1013.83
2023-05-14T16:32:24.731Z,1013.80
2023-05-14T16:34:36.828Z,1013.80
2023-05-14T16:36:49.937Z,1013.79
2023-05-14T16:41:15.097Z,1013.75
2023-05-14T16:43:27.192Z,1013.73
2023-05-14T16:45:40.807Z,1013.75
2023-05-14T16:47:52.949Z,1013.71
2023-05-14T16:50:05.953Z,1013.73
2023-05-14T16:52:17.051Z,1013.67
2023-05-14T16:54:29.122Z,1013.68
2023-05-14T16:56:41.426Z,1013.66
2023-05-14T16:58:53.294Z,1013.64
2023-05-14T17:01:08.662Z,1013.65
2023-05-14T17:03:18.019Z,1013.63
2023-05-14T17:05:29.846Z,1013.64
2023-05-14T17:07:41.920Z,1013.61
2023-05-14T17:09:54.879Z,1013.64
2023-05-14T17:12:06.102Z,1013.61
2023-05-14T17:14:18.185Z,1013.61
2023-05-14T17:16:30.253Z,1013.58
2023-05-14T17:18:43.260Z,1013.63
2023-05-14T17:20:55.936Z,1013.60
2023-05-14T17:23:08.047Z,1013.59
2023-05-14T17:25:20.105Z,1013.65
2023-05-14T17:27:33.180Z,1013.68
2023-05-14T17:29:44.286Z,1013.69
2023-05-14T17:31:56.414Z,1013.69
2023-05-14T17:34:08.447Z,1013.71
2023-05-14T17:36:20.539Z,1013.70
2023-05-14T17:38:32.608Z,1013.71
2023-05-14T17:40:48.190Z,1013.68
2023-05-14T17:43:01.273Z,1013.64
2023-05-14T17:45:13.405Z,1013.64
2023-05-14T17:47:25.418Z,1013.61
2023-05-14T17:49:38.470Z,1013.66
2023-05-14T17:51:53.083Z,1013.56
2023-05-14T17:54:05.672Z,1013.55
2023-05-14T17:56:18.351Z,1013.61
2023-05-14T17:58:29.881Z,1013.68
2023-05-14T18:00:44.424Z,1013.66
2023-05-14T18:02:57.148Z,1013.67
2023-05-14T18:05:10.287Z,1013.64
2023-05-14T18:07:22.393Z,1013.64
2023-05-14T18:09:33.567Z,1013.68
2023-05-14T18:11:45.641Z,1013.73
2023-05-14T18:13:58.552Z,1013.68
2023-05-14T18:16:10.427Z,1013.72
2023-05-14T18:18:21.906Z,1013.74
2023-05-14T18:20:36.355Z,1013.78
2023-05-14T18:22:48.574Z,1013.80
2023-05-14T18:25:00.681Z,1013.77
2023-05-14T18:27:13.700Z,1013.80
2023-05-14T18:29:26.744Z,1013.80
2023-05-14T18:31:36.909Z,1013.81
2023-05-14T18:33:48.986Z,1013.82
2023-05-14T18:36:01.043Z,1013.80
2023-05-14T18:38:14.089Z,1013.76
2023-05-14T18:40:25.558Z,1013.77
2023-05-14T18:42:37.604Z,1013.81
2023-05-14T18:44:49.699Z,1013.84
2023-05-14T18:47:02.636Z,1013.86
2023-05-14T18:49:13.943Z,1013.92
2023-05-14T18:51:31.020Z,1013.90
2023-05-14T18:53:45.077Z,1013.93
2023-05-14T18:56:02.990Z,1013.95
2023-05-14T18:58:14.137Z,1013.98
2023-05-14T19:00:27.739Z,1013.99
2023-05-14T19:23:05.612Z,1013.92
2023-05-14T19:25:07.577Z,1013.90
2023-05-14T19:27:21.224Z,1013.92
2023-05-14T19:29:34.721Z,1013.91
2023-05-14T19:31:46.864Z,1013.94
2023-05-14T19:34:00.750Z,1013.94
2023-05-14T19:36:13.962Z,1013.94
2023-05-14T19:38:29.580Z,1013.95
2023-05-14T19:40:44.411Z,1013.90
2023-05-14T19:42:58.724Z,1013.90
2023-05-14T19:45:11.841Z,1013.90
2023-05-14T19:47:23.955Z,1013.85
2023-05-14T19:49:37.569Z,1013.85
2023-05-14T19:52:14.581Z,1013.82
2023-05-14T19:54:09.659Z,1013.79
2023-05-14T19:56:28.906Z,1013.75
2023-05-14T19:58:44.191Z,1013.72
2023-05-14T20:01:04.468Z,1013.69
2023-05-14T20:03:14.985Z,1013.74
2023-05-14T20:05:31.066Z,1013.69
2023-05-14T20:07:44.643Z,1013.68
2023-05-14T20:09:58.764Z,1013.69
2023-05-14T20:12:12.783Z,1013.65
2023-05-14T20:14:31.894Z,1013.63
2023-05-14T20:16:42.507Z,1013.65
2023-05-14T20:18:55.578Z,1013.65
2023-05-14T20:21:06.666Z,1013.69
2023-05-14T20:23:18.716Z,1013.74
2023-05-14T20:25:32.647Z,1013.76
2023-05-14T20:27:46.405Z,1013.70
2023-05-14T20:30:00.093Z,1013.67
2023-05-14T20:32:13.615Z,1013.67
2023-05-14T20:34:25.703Z,1013.62
2023-05-14T20:36:37.773Z,1013.61
2023-05-14T20:38:50.793Z,1013.61
2023-05-14T20:41:02.006Z,1013.63
2023-05-14T20:43:14.076Z,1013.63
2023-05-14T20:45:26.442Z,1013.57
2023-05-14T20:47:38.346Z,1013.52
2023-05-14T20:49:51.298Z,1013.52
2023-05-14T20:52:03.537Z,1013.51
2023-05-14T20:54:17.391Z,1013.43
2023-05-14T20:56:28.514Z,1013.44
2023-05-14T20:58:41.494Z,1013.45
2023-05-14T21:00:52.681Z,1013.47
2023-05-14T21:03:05.881Z,1013.46
2023-05-14T21:05:16.879Z,1013.45
2023-05-14T21:07:29.074Z,1013.36
2023-05-14T21:09:41.018Z,1013.34
2023-05-14T21:11:53.088Z,1013.36
2023-05-14T21:14:05.215Z,1013.36
2023-05-14T21:16:17.317Z,1013.29
2023-05-14T21:18:29.431Z,1013.31
2023-05-14T21:20:42.469Z,1013.26
2023-05-14T21:22:55.595Z,1013.24
2023-05-14T21:25:07.750Z,1013.24
2023-05-14T21:27:19.773Z,1013.21
2023-05-14T21:29:33.743Z,1013.25
2023-05-14T21:31:44.077Z,1013.25
2023-05-14T21:33:56.028Z,1013.22
2023-05-14T21:36:08.118Z,1013.20
2023-05-14T21:38:21.135Z,1013.24
2023-05-14T21:40:33.170Z,1013.22
2023-05-14T21:42:45.216Z,1013.19
2023-05-14T21:44:56.444Z,1013.18
2023-05-14T21:47:09.436Z,1013.12
2023-05-14T21:49:20.597Z,1013.15
2023-05-14T21:51:32.671Z,1013.11
2023-05-14T21:53:44.793Z,1013.11
2023-05-14T21:55:59.376Z,1013.05
2023-05-14T21:58:11.970Z,1013.10
2023-05-14T22:00:24.089Z,1013.09
2023-05-14T22:02:36.116Z,1013.08
2023-05-14T22:04:48.165Z,1013.06
2023-05-14T22:07:00.305Z,1013.02
2023-05-14T22:09:13.907Z,1013.04
2023-05-14T22:11:25.974Z,1013.01
2023-05-14T22:13:38.078Z,1012.94
2023-05-14T22:16:01.353Z,1012.94
2023-05-14T22:16:52.172Z,1012.90
2023-05-14T22:19:05.352Z,1012.89
2023-05-14T22:21:15.290Z,1012.88
2023-05-14T22:23:29.389Z,1012.88
2023-05-14T22:25:39.789Z,1012.87
2023-05-14T22:27:51.844Z,1012.89
2023-05-14T22:30:04.833Z,1012.86
2023-05-14T22:32:16.009Z,1012.87
2023-05-14T22:34:28.993Z,1012.85
2023-05-14T22:36:40.198Z,1012.81
2023-05-14T22:38:52.253Z,1012.82
2023-05-14T22:41:04.339Z,1012.83
2023-05-14T22:43:16.404Z,1012.80
2023-05-14T22:45:28.534Z,1012.78
2023-05-14T22:47:40.746Z,1012.71
2023-05-14T22:49:54.634Z,1012.64
2023-05-14T22:52:06.740Z,1012.67
2023-05-14T22:54:18.413Z,1012.66
2023-05-14T22:56:29.956Z,1012.63
2023-05-14T22:58:43.946Z,1012.65
2023-05-14T23:00:55.554Z,1012.67
2023-05-14T23:03:08.140Z,1012.65
2023-05-14T23:05:20.158Z,1012.66
2023-05-14T23:07:32.762Z,1012.62
2023-05-14T23:09:44.330Z,1012.62
2023-05-14T23:11:56.492Z,1012.55
2023-05-14T23:14:08.487Z,1012.58
2023-05-14T23:16:19.696Z,1012.55
2023-05-14T23:18:34.425Z,1012.47
2023-05-14T23:20:46.369Z,1012.48
2023-05-14T23:22:58.930Z,1012.45
2023-05-14T23:25:10.498Z,1012.45
2023-05-14T23:27:24.462Z,1012.44
2023-05-14T23:29:36.159Z,1012.46
2023-05-14T23:31:47.771Z,1012.42
2023-05-14T23:33:59.787Z,1012.38
2023-05-14T23:36:12.445Z,1012.36
2023-05-14T23:38:23.994Z,1012.34
2023-05-14T23:40:36.961Z,1012.29
2023-05-14T23:42:49.076Z,1012.23
2023-05-14T23:45:00.235Z,1012.26
2023-05-14T23:47:13.189Z,1012.23
2023-05-14T23:49:24.422Z,1012.17
2023-05-14T23:51:36.480Z,1012.20
2023-05-14T23:53:49.001Z,1012.16
2023-05-14T23:56:00.650Z,1012.11
2023-05-14T23:58:13.740Z,1012.08
